createdAt,value
2022-11-19T00:00:34.499Z,15.35
2022-11-19T00:01:36.046Z,15.38
2022-11-19T00:02:37.632Z,15.42
2022-11-19T00:03:40.536Z,15.45
2022-11-19T00:04:42.078Z,15.49
2022-11-19T00:05:45.817Z,15.42
2022-11-19T00:06:47.409Z,15.37
2022-11-19T00:07:48.920Z,15.39
2022-11-19T00:08:50.867Z,15.40
2022-11-19T00:09:52.372Z,15.41
2022-11-19T00:10:53.897Z,15.43
2022-11-19T00:12:13.845Z,15.44
2022-11-19T00:13:15.434Z,15.28
2022-11-19T00:14:17.041Z,15.08
2022-11-19T00:15:18.562Z,14.94
2022-11-19T00:16:20.122Z,14.80
2022-11-19T00:17:21.705Z,14.69
2022-11-19T00:18:23.217Z,14.65
2022-11-19T00:19:24.785Z,14.70
2022-11-19T00:20:26.945Z,14.76
2022-11-19T00:21:28.486Z,14.82
2022-11-19T00:22:30.085Z,14.91
2022-11-19T00:23:32.172Z,14.94
2022-11-19T00:24:33.703Z,14.91
2022-11-19T00:25:35.217Z,14.75
2022-11-19T00:26:36.946Z,14.68
2022-11-19T00:27:38.452Z,14.67
2022-11-19T00:28:41.401Z,14.63
2022-11-19T00:29:42.979Z,14.56
2022-11-19T00:30:48.653Z,14.48
2022-11-19T00:31:50.499Z,14.38
2022-11-19T00:32:52.122Z,14.30
2022-11-19T00:33:54.931Z,14.31
2022-11-19T00:34:56.501Z,14.35
2022-11-19T00:35:59.834Z,14.45
2022-11-19T00:37:01.359Z,14.52
2022-11-19T00:38:02.932Z,14.49
2022-11-19T00:39:04.898Z,14.42
2022-11-19T00:40:12.025Z,14.35
2022-11-19T00:41:13.597Z,14.29
2022-11-19T00:42:15.220Z,14.27
2022-11-19T00:43:52.234Z,14.31
2022-11-19T00:44:54.050Z,14.27
2022-11-19T00:45:55.663Z,14.31
2022-11-19T00:46:57.168Z,14.38
2022-11-19T00:47:58.690Z,14.43
2022-11-19T00:49:00.678Z,14.52
2022-11-19T00:50:02.212Z,14.54
2022-11-19T00:51:03.822Z,14.55
2022-11-19T00:52:05.598Z,14.61
2022-11-19T00:53:07.122Z,14.62
2022-11-19T00:54:08.672Z,14.63
2022-11-19T00:55:10.166Z,14.67
2022-11-19T00:56:14.774Z,14.72
2022-11-19T00:57:16.286Z,14.75
2022-11-19T00:58:19.381Z,14.78
2022-11-19T00:59:21.316Z,14.80
2022-11-19T01:00:23.380Z,14.83
2022-11-19T01:01:25.721Z,14.80
2022-11-19T01:02:27.355Z,14.70
2022-11-19T01:03:30.195Z,14.70
2022-11-19T01:04:31.842Z,14.76
2022-11-19T01:05:33.387Z,14.76
2022-11-19T01:06:34.984Z,14.74
2022-11-19T01:07:36.575Z,14.70
2022-11-19T01:08:38.529Z,14.65
2022-11-19T01:09:40.054Z,14.59
2022-11-19T01:10:42.602Z,14.56
2022-11-19T01:11:44.333Z,14.50
2022-11-19T01:13:04.398Z,14.45
2022-11-19T01:14:07.390Z,14.36
2022-11-19T01:15:09.584Z,14.34
2022-11-19T01:16:14.436Z,14.33
2022-11-19T01:17:15.987Z,14.35
2022-11-19T01:18:19.000Z,14.38
2022-11-19T01:19:20.969Z,14.38
2022-11-19T01:20:22.861Z,14.37
2022-11-19T01:21:28.446Z,14.34
2022-11-19T01:22:29.965Z,14.32
2022-11-19T01:23:32.029Z,14.26
2022-11-19T01:24:33.625Z,14.12
2022-11-19T01:25:35.204Z,14.03
2022-11-19T01:26:38.768Z,13.97
2022-11-19T01:27:43.353Z,13.94
2022-11-19T01:28:46.068Z,13.95
2022-11-19T01:29:48.077Z,13.98
2022-11-19T01:30:49.864Z,14.01
2022-11-19T01:31:51.440Z,14.07
2022-11-19T01:32:53.061Z,14.07
2022-11-19T01:33:55.034Z,14.10
2022-11-19T01:34:56.621Z,14.10
2022-11-19T01:36:00.186Z,14.16
2022-11-19T01:37:01.826Z,14.20
2022-11-19T01:38:05.116Z,14.25
2022-11-19T01:39:06.663Z,14.18
2022-11-19T01:40:08.802Z,14.14
2022-11-19T01:41:10.526Z,14.15
2022-11-19T01:42:50.589Z,14.22
2022-11-19T01:44:05.276Z,14.28
2022-11-19T01:45:07.909Z,14.39
2022-11-19T01:46:12.608Z,14.43
2022-11-19T01:47:14.448Z,14.43
2022-11-19T01:48:23.957Z,14.42
2022-11-19T01:49:25.591Z,14.36
2022-11-19T01:50:31.168Z,14.28
2022-11-19T01:51:41.047Z,14.13
2022-11-19T01:52:42.750Z,14.03
2022-11-19T01:53:48.987Z,14.01
2022-11-19T01:54:55.629Z,14.06
2022-11-19T01:56:03.935Z,14.14
2022-11-19T01:57:10.138Z,14.22
2022-11-19T01:58:15.605Z,14.26
2022-11-19T01:59:19.357Z,14.30
2022-11-19T02:00:22.239Z,14.34
2022-11-19T02:01:24.132Z,14.37
2022-11-19T02:02:25.868Z,14.41
2022-11-19T02:03:31.270Z,14.41
2022-11-19T02:04:34.670Z,14.44
2022-11-19T02:05:36.872Z,14.40
2022-11-19T02:06:39.425Z,14.38
2022-11-19T02:07:46.356Z,14.41
2022-11-19T02:08:53.447Z,14.42
2022-11-19T02:09:56.443Z,14.50
2022-11-19T02:11:25.892Z,14.55
2022-11-19T02:12:59.844Z,14.59
2022-11-19T02:14:18.589Z,14.60
2022-11-19T02:15:35.197Z,14.53
2022-11-19T02:17:01.629Z,14.39
2022-11-19T02:18:34.021Z,14.15
2022-11-19T02:20:06.578Z,14.00
2022-11-19T02:21:20.035Z,13.89
2022-11-19T02:23:07.281Z,13.81
2022-11-19T02:24:41.720Z,13.82
2022-11-19T02:26:07.597Z,13.86
2022-11-19T02:27:21.512Z,13.86
2022-11-19T02:28:40.319Z,13.90
2022-11-19T02:29:59.165Z,13.96
2022-11-19T02:31:08.618Z,14.05
2022-11-19T02:32:19.175Z,14.12
2022-11-19T02:33:34.699Z,14.15
2022-11-19T02:34:46.328Z,14.19
2022-11-19T02:36:24.172Z,14.28
2022-11-19T02:37:49.548Z,14.34
2022-11-19T02:39:02.698Z,14.36
2022-11-19T02:40:09.508Z,14.39
2022-11-19T02:41:35.247Z,14.40
2022-11-19T02:42:54.002Z,14.42
2022-11-19T02:44:20.160Z,14.42
2022-11-19T02:45:24.486Z,14.33
2022-11-19T02:46:26.430Z,14.28
2022-11-19T02:47:42.705Z,14.27
2022-11-19T02:48:49.872Z,14.24
2022-11-19T02:49:55.974Z,14.27
2022-11-19T02:51:03.431Z,14.30
2022-11-19T02:52:05.580Z,14.23
2022-11-19T02:53:07.125Z,14.12
2022-11-19T02:54:08.829Z,14.09
2022-11-19T02:55:15.745Z,13.96
2022-11-19T02:56:55.849Z,13.80
2022-11-19T02:58:09.319Z,13.67
2022-11-19T02:59:31.114Z,13.60
2022-11-19T03:01:03.485Z,13.59
2022-11-19T03:02:26.530Z,13.64
2022-11-19T03:03:47.334Z,13.56
2022-11-19T03:04:48.980Z,13.56
2022-11-19T03:05:57.261Z,13.54
2022-11-19T03:07:07.418Z,13.48
2022-11-19T03:08:09.109Z,13.42
2022-11-19T03:09:11.643Z,13.38
2022-11-19T03:10:16.025Z,13.35
2022-11-19T03:11:29.317Z,13.28
2022-11-19T03:12:38.737Z,13.26
2022-11-19T03:14:22.367Z,13.33
2022-11-19T03:15:46.688Z,13.37
2022-11-19T03:17:06.756Z,13.46
2022-11-19T03:18:19.117Z,13.51
2022-11-19T03:19:27.067Z,13.53
2022-11-19T03:20:38.528Z,13.57
2022-11-19T03:21:52.471Z,13.60
2022-11-19T03:23:03.913Z,13.64
2022-11-19T03:24:11.175Z,13.66
2022-11-19T03:25:19.117Z,13.69
2022-11-19T03:26:32.001Z,13.69
2022-11-19T03:27:51.783Z,13.75
2022-11-19T03:28:57.512Z,13.79
2022-11-19T03:30:02.488Z,13.81
2022-11-19T03:31:06.175Z,13.88
2022-11-19T03:32:14.875Z,13.90
2022-11-19T03:33:24.994Z,13.99
2022-11-19T03:34:30.478Z,14.02
2022-11-19T03:35:38.103Z,14.06
2022-11-19T03:36:42.821Z,14.11
2022-11-19T03:37:50.662Z,14.16
2022-11-19T03:38:58.117Z,14.20
2022-11-19T03:40:02.013Z,14.20
2022-11-19T03:41:06.202Z,14.24
2022-11-19T03:42:12.133Z,14.26
2022-11-19T03:43:17.989Z,14.31
2022-11-19T03:44:48.427Z,14.37
2022-11-19T03:45:52.720Z,14.37
2022-11-19T03:47:00.931Z,14.33
2022-11-19T03:48:04.923Z,14.35
2022-11-19T03:49:09.236Z,14.33
2022-11-19T03:50:32.453Z,14.27
2022-11-19T03:51:44.158Z,14.26
2022-11-19T03:52:45.957Z,14.23
2022-11-19T03:53:49.153Z,14.25
2022-11-19T03:54:50.760Z,14.27
2022-11-19T03:55:59.351Z,14.28
2022-11-19T03:57:02.581Z,14.30
2022-11-19T03:58:06.332Z,14.25
2022-11-19T03:59:11.261Z,14.15
2022-11-19T04:00:13.175Z,14.16
2022-11-19T04:01:15.844Z,14.20
2022-11-19T04:02:18.183Z,14.25
2022-11-19T04:03:20.021Z,14.29
2022-11-19T04:04:37.372Z,14.32
2022-11-19T04:05:38.933Z,14.21
2022-11-19T04:06:40.529Z,14.05
2022-11-19T04:07:42.154Z,13.93
2022-11-19T04:08:43.730Z,13.95
2022-11-19T04:09:45.574Z,13.93
2022-11-19T04:10:47.102Z,13.94
2022-11-19T04:12:49.097Z,13.89
2022-11-19T04:13:50.607Z,13.94
2022-11-19T04:14:52.525Z,14.02
2022-11-19T04:15:54.032Z,14.10
2022-11-19T04:16:55.897Z,14.11
2022-11-19T04:17:57.416Z,14.08
2022-11-19T04:18:58.989Z,14.08
2022-11-19T04:20:00.562Z,14.13
2022-11-19T04:21:02.125Z,14.04
2022-11-19T04:22:03.775Z,13.92
2022-11-19T04:23:05.405Z,13.88
2022-11-19T04:24:07.319Z,13.85
2022-11-19T04:25:09.418Z,13.87
2022-11-19T04:26:10.935Z,13.87
2022-11-19T04:27:12.502Z,13.93
2022-11-19T04:28:14.041Z,14.00
2022-11-19T04:29:15.660Z,14.04
2022-11-19T04:30:17.375Z,14.08
2022-11-19T04:31:18.942Z,14.12
2022-11-19T04:32:20.479Z,14.06
2022-11-19T04:33:22.009Z,13.95
2022-11-19T04:34:23.557Z,13.73
2022-11-19T04:35:25.136Z,13.62
2022-11-19T04:36:26.982Z,13.61
2022-11-19T04:37:28.607Z,13.65
2022-11-19T04:38:30.157Z,13.68
2022-11-19T04:39:31.735Z,13.69
2022-11-19T04:40:33.270Z,13.69
2022-11-19T04:41:35.666Z,13.69
2022-11-19T04:42:37.186Z,13.67
2022-11-19T04:43:38.782Z,13.64
2022-11-19T04:44:40.468Z,13.65
2022-11-19T04:45:41.991Z,13.68
2022-11-19T04:46:43.589Z,13.68
2022-11-19T04:47:45.116Z,13.68
2022-11-19T04:48:46.694Z,13.71
2022-11-19T04:49:48.210Z,13.79
2022-11-19T04:50:49.758Z,13.80
2022-11-19T04:51:51.298Z,13.83
2022-11-19T04:52:52.899Z,13.82
2022-11-19T04:53:55.634Z,13.82
2022-11-19T04:54:57.152Z,13.84
2022-11-19T04:55:58.759Z,13.84
2022-11-19T04:57:00.400Z,13.87
2022-11-19T04:58:01.929Z,13.89
2022-11-19T04:59:05.231Z,13.92
2022-11-19T05:00:07.681Z,14.01
2022-11-19T05:01:09.319Z,14.03
2022-11-19T05:02:10.884Z,14.04
2022-11-19T05:03:12.391Z,14.08
2022-11-19T05:04:14.038Z,14.14
2022-11-19T05:05:15.559Z,14.18
2022-11-19T05:06:17.344Z,14.21
2022-11-19T05:07:18.904Z,14.24
2022-11-19T05:08:20.574Z,14.24
2022-11-19T05:09:22.466Z,14.28
2022-11-19T05:10:24.197Z,14.31
2022-11-19T05:11:25.714Z,14.33
2022-11-19T05:12:27.255Z,14.37
2022-11-19T05:13:28.792Z,14.38
2022-11-19T05:14:30.761Z,14.38
2022-11-19T05:15:32.357Z,14.39
2022-11-19T05:16:33.886Z,14.40
2022-11-19T05:17:35.423Z,14.41
2022-11-19T05:18:37.034Z,14.41
2022-11-19T05:19:38.602Z,14.41
2022-11-19T05:20:40.208Z,14.44
2022-11-19T05:21:42.495Z,14.44
2022-11-19T05:22:44.057Z,14.45
2022-11-19T05:23:45.610Z,14.45
2022-11-19T05:24:47.149Z,14.46
2022-11-19T05:25:48.723Z,14.48
2022-11-19T05:26:50.358Z,14.49
2022-11-19T05:27:52.046Z,14.49
2022-11-19T05:28:53.614Z,14.49
2022-11-19T05:29:55.154Z,14.51
2022-11-19T05:30:56.873Z,14.51
2022-11-19T05:31:58.466Z,14.49
2022-11-19T05:33:00.043Z,14.48
2022-11-19T05:34:01.621Z,14.45
2022-11-19T05:35:07.096Z,14.40
2022-11-19T05:36:08.947Z,14.33
2022-11-19T05:37:10.546Z,14.29
2022-11-19T05:38:12.125Z,14.27
2022-11-19T05:39:17.490Z,14.30
2022-11-19T05:40:23.424Z,14.30
2022-11-19T05:41:24.959Z,14.25
2022-11-19T05:42:26.512Z,14.25
2022-11-19T05:43:28.205Z,14.21
2022-11-19T05:44:29.728Z,14.13
2022-11-19T05:45:31.330Z,14.04
2022-11-19T05:46:32.923Z,13.99
2022-11-19T05:47:34.630Z,14.00
2022-11-19T05:48:36.289Z,14.03
2022-11-19T05:49:37.848Z,13.98
2022-11-19T05:50:42.450Z,14.03
2022-11-19T05:51:45.604Z,14.11
2022-11-19T05:52:47.131Z,14.08
2022-11-19T05:53:48.868Z,14.06
2022-11-19T05:54:50.412Z,14.03
2022-11-19T05:55:51.974Z,13.93
2022-11-19T05:56:53.545Z,13.86
2022-11-19T05:57:55.077Z,13.80
2022-11-19T05:58:56.765Z,13.77
2022-11-19T05:59:58.365Z,13.76
2022-11-19T06:01:00.269Z,13.78
2022-11-19T06:02:01.814Z,13.82
2022-11-19T06:03:03.411Z,13.81
2022-11-19T06:04:05.179Z,13.75
2022-11-19T06:05:07.110Z,13.73
2022-11-19T06:06:08.907Z,13.67
2022-11-19T06:07:10.609Z,13.59
2022-11-19T06:08:12.262Z,13.50
2022-11-19T06:09:13.783Z,13.48
2022-11-19T06:10:15.443Z,13.49
2022-11-19T06:11:36.225Z,13.58
2022-11-19T06:12:41.276Z,13.69
2022-11-19T06:13:46.797Z,13.76
2022-11-19T06:14:48.350Z,13.83
2022-11-19T06:15:49.905Z,13.86
2022-11-19T06:16:54.384Z,13.82
2022-11-19T06:17:56.731Z,13.81
2022-11-19T06:18:58.258Z,13.87
2022-11-19T06:20:00.391Z,13.92
2022-11-19T06:21:01.898Z,13.96
2022-11-19T06:22:03.938Z,13.99
2022-11-19T06:23:05.509Z,13.99
2022-11-19T06:24:07.258Z,13.86
2022-11-19T06:25:09.120Z,13.77
2022-11-19T06:26:11.186Z,13.72
2022-11-19T06:27:12.769Z,13.64
2022-11-19T06:28:14.368Z,13.63
2022-11-19T06:29:17.407Z,13.60
2022-11-19T06:30:19.286Z,13.54
2022-11-19T06:31:21.652Z,13.48
2022-11-19T06:32:23.677Z,13.49
2022-11-19T06:33:25.525Z,13.52
2022-11-19T06:34:27.070Z,13.54
2022-11-19T06:35:28.812Z,13.60
2022-11-19T06:36:36.076Z,13.72
2022-11-19T06:37:43.797Z,13.89
2022-11-19T06:38:45.560Z,14.02
2022-11-19T06:39:47.150Z,14.16
2022-11-19T06:40:48.707Z,14.34
2022-11-19T06:41:50.314Z,14.46
2022-11-19T06:42:51.882Z,14.59
2022-11-19T06:43:53.449Z,14.74
2022-11-19T06:44:54.985Z,14.87
2022-11-19T06:45:56.558Z,15.00
2022-11-19T06:46:58.105Z,15.12
2022-11-19T06:47:59.646Z,15.22
2022-11-19T06:49:01.346Z,15.28
2022-11-19T06:50:04.070Z,15.33
2022-11-19T06:51:05.852Z,15.39
2022-11-19T06:52:07.427Z,15.49
2022-11-19T06:53:08.969Z,15.64
2022-11-19T06:54:10.613Z,15.76
2022-11-19T06:55:13.470Z,15.83
2022-11-19T06:56:15.033Z,15.92
2022-11-19T06:57:16.660Z,16.02
2022-11-19T06:58:18.197Z,16.08
2022-11-19T06:59:19.854Z,16.05
2022-11-19T07:00:21.610Z,16.03
2022-11-19T07:01:23.223Z,16.05
2022-11-19T07:02:24.858Z,16.15
2022-11-19T07:03:26.712Z,16.25
2022-11-19T07:04:28.281Z,16.32
2022-11-19T07:05:29.905Z,16.20
2022-11-19T07:06:31.481Z,16.20
2022-11-19T07:07:34.838Z,16.27
2022-11-19T07:08:37.466Z,16.37
2022-11-19T07:09:39.947Z,16.43
2022-11-19T07:10:41.662Z,16.54
2022-11-19T07:11:43.245Z,16.65
2022-11-19T07:12:44.780Z,16.78
2022-11-19T07:13:58.398Z,16.86
2022-11-19T07:15:04.244Z,16.88
2022-11-19T07:16:06.460Z,16.78
2022-11-19T07:17:08.048Z,16.87
2022-11-19T07:18:10.030Z,16.84
2022-11-19T07:19:11.694Z,16.70
2022-11-19T07:20:13.324Z,16.46
2022-11-19T07:21:14.941Z,16.27
2022-11-19T07:22:16.489Z,16.24
2022-11-19T07:23:20.495Z,16.19
2022-11-19T07:24:22.190Z,16.21
2022-11-19T07:25:23.857Z,16.24
2022-11-19T07:26:26.378Z,16.35
2022-11-19T07:27:27.985Z,16.42
2022-11-19T07:28:29.554Z,16.59
2022-11-19T07:29:31.117Z,16.83
2022-11-19T07:30:32.663Z,17.06
2022-11-19T07:31:34.498Z,17.19
2022-11-19T07:32:36.054Z,17.31
2022-11-19T07:33:39.325Z,17.39
2022-11-19T07:34:40.923Z,17.49
2022-11-19T07:35:42.456Z,17.65
2022-11-19T07:36:44.795Z,17.68
2022-11-19T07:37:46.328Z,17.68
2022-11-19T07:38:48.219Z,17.71
2022-11-19T07:39:49.754Z,17.69
2022-11-19T07:40:54.999Z,17.73
2022-11-19T07:42:14.594Z,17.88
2022-11-19T07:43:16.150Z,18.02
2022-11-19T07:44:18.021Z,18.07
2022-11-19T07:45:22.166Z,17.96
2022-11-19T07:46:23.986Z,17.85
2022-11-19T07:47:25.678Z,17.61
2022-11-19T07:48:27.219Z,17.56
2022-11-19T07:49:28.768Z,17.38
2022-11-19T07:50:30.276Z,17.29
2022-11-19T07:51:32.031Z,17.30
2022-11-19T07:52:33.684Z,17.42
2022-11-19T07:53:35.271Z,17.48
2022-11-19T07:54:36.804Z,17.49
2022-11-19T07:55:38.361Z,17.54
2022-11-19T07:56:40.680Z,17.58
2022-11-19T07:57:42.206Z,17.48
2022-11-19T07:58:43.864Z,17.44
2022-11-19T07:59:45.515Z,17.46
2022-11-19T08:00:47.038Z,17.44
2022-11-19T08:01:48.681Z,17.41
2022-11-19T08:02:50.378Z,17.33
2022-11-19T08:03:56.377Z,17.36
2022-11-19T08:04:58.203Z,17.42
2022-11-19T08:05:59.712Z,17.37
2022-11-19T08:07:01.582Z,17.30
2022-11-19T08:08:03.210Z,17.27
2022-11-19T08:09:06.047Z,17.24
2022-11-19T08:10:08.549Z,17.25
2022-11-19T08:11:12.140Z,17.29
2022-11-19T08:12:13.723Z,17.34
2022-11-19T08:13:15.248Z,17.39
2022-11-19T08:14:16.780Z,17.34
2022-11-19T08:15:18.308Z,17.28
2022-11-19T08:16:39.069Z,17.23
2022-11-19T08:17:58.920Z,17.31
2022-11-19T08:19:07.202Z,17.28
2022-11-19T08:20:09.720Z,17.29
2022-11-19T08:21:12.181Z,17.31
2022-11-19T08:22:13.831Z,17.29
2022-11-19T08:23:15.729Z,17.23
2022-11-19T08:24:19.812Z,17.18
2022-11-19T08:25:21.883Z,17.19
2022-11-19T08:26:23.690Z,17.23
2022-11-19T08:27:25.480Z,17.25
2022-11-19T08:28:27.909Z,17.25
2022-11-19T08:29:29.450Z,17.12
2022-11-19T08:30:32.351Z,16.97
2022-11-19T08:31:33.955Z,16.90
2022-11-19T08:32:36.488Z,16.91
2022-11-19T08:33:38.060Z,16.87
2022-11-19T08:34:39.647Z,16.81
2022-11-19T08:35:41.300Z,16.78
2022-11-19T08:36:43.383Z,16.69
2022-11-19T08:37:47.074Z,16.66
2022-11-19T08:38:48.657Z,16.57
2022-11-19T08:39:50.182Z,16.50
2022-11-19T08:40:53.002Z,16.43
2022-11-19T08:42:13.024Z,16.42
2022-11-19T08:43:14.599Z,16.43
2022-11-19T08:44:17.957Z,16.45
2022-11-19T08:45:20.925Z,16.48
2022-11-19T08:46:22.675Z,16.52
2022-11-19T08:47:24.200Z,16.52
2022-11-19T08:48:25.711Z,16.54
2022-11-19T08:49:27.405Z,16.54
2022-11-19T08:50:30.123Z,16.49
2022-11-19T08:51:32.337Z,16.57
2022-11-19T08:52:33.899Z,16.61
2022-11-19T08:53:35.479Z,16.63
2022-11-19T08:54:37.025Z,16.74
2022-11-19T08:55:38.603Z,16.91
2022-11-19T08:56:40.346Z,17.14
2022-11-19T08:57:41.913Z,17.35
2022-11-19T08:58:43.634Z,17.57
2022-11-19T08:59:45.184Z,17.65
2022-11-19T09:00:47.017Z,17.75
2022-11-19T09:01:49.861Z,17.81
2022-11-19T09:02:51.386Z,17.83
2022-11-19T09:03:52.942Z,17.94
2022-11-19T09:04:54.430Z,17.97
2022-11-19T09:06:00.066Z,18.08
2022-11-19T09:07:02.711Z,18.11
2022-11-19T09:08:04.349Z,18.17
2022-11-19T09:09:05.939Z,18.19
2022-11-19T09:10:08.260Z,18.21
2022-11-19T09:11:13.388Z,18.15
2022-11-19T09:12:14.952Z,18.11
2022-11-19T09:13:16.474Z,18.09
2022-11-19T09:14:18.435Z,18.09
2022-11-19T09:15:20.832Z,18.21
2022-11-19T09:16:22.429Z,18.30
2022-11-19T09:17:24.226Z,18.40
2022-11-19T09:18:25.920Z,18.43
2022-11-19T09:19:27.475Z,18.39
2022-11-19T09:20:28.982Z,18.40
2022-11-19T09:21:30.521Z,18.43
2022-11-19T09:22:32.363Z,18.46
2022-11-19T09:23:34.009Z,18.57
2022-11-19T09:24:35.513Z,18.53
2022-11-19T09:25:37.063Z,18.56
2022-11-19T09:26:38.726Z,18.50
2022-11-19T09:27:40.367Z,18.43
2022-11-19T09:28:42.762Z,18.46
2022-11-19T09:29:44.365Z,18.44
2022-11-19T09:30:53.950Z,18.49
2022-11-19T09:31:55.556Z,18.49
2022-11-19T09:32:59.989Z,18.51
2022-11-19T09:34:01.766Z,18.45
2022-11-19T09:35:03.365Z,18.41
2022-11-19T09:36:05.311Z,18.42
2022-11-19T09:37:09.214Z,18.44
2022-11-19T09:38:10.816Z,18.36
2022-11-19T09:39:12.653Z,18.31
2022-11-19T09:40:20.794Z,18.25
2022-11-19T09:41:34.176Z,18.27
2022-11-19T09:42:48.423Z,18.39
2022-11-19T09:43:49.933Z,18.52
2022-11-19T09:45:02.901Z,18.66
2022-11-19T09:46:15.415Z,18.80
2022-11-19T09:47:22.857Z,18.94
2022-11-19T09:48:36.955Z,19.04
2022-11-19T09:50:16.749Z,19.22
2022-11-19T09:51:26.388Z,19.27
2022-11-19T09:52:30.230Z,19.24
2022-11-19T09:53:59.706Z,19.24
2022-11-19T09:55:02.777Z,19.17
2022-11-19T09:56:06.173Z,19.06
2022-11-19T09:57:15.205Z,18.96
2022-11-19T09:58:31.295Z,18.89
2022-11-19T09:59:41.404Z,18.84
2022-11-19T10:00:44.519Z,18.80
2022-11-19T10:01:46.065Z,18.76
2022-11-19T10:02:47.860Z,18.74
2022-11-19T10:03:52.319Z,18.76
2022-11-19T10:04:54.006Z,18.74
2022-11-19T10:06:07.746Z,18.80
2022-11-19T10:07:29.159Z,18.79
2022-11-19T10:09:08.307Z,18.74
2022-11-19T10:10:38.804Z,18.63
2022-11-19T10:11:40.281Z,18.61
2022-11-19T10:13:12.403Z,18.56
2022-11-19T10:14:34.985Z,18.55
2022-11-19T10:15:53.900Z,18.54
2022-11-19T10:17:14.155Z,18.53
2022-11-19T10:18:43.981Z,18.55
2022-11-19T10:19:52.012Z,18.56
2022-11-19T10:21:05.096Z,18.67
2022-11-19T10:22:22.920Z,18.74
2022-11-19T10:23:42.628Z,18.78
2022-11-19T10:24:51.827Z,18.83
2022-11-19T10:26:01.862Z,18.84
2022-11-19T10:27:12.358Z,18.85
2022-11-19T10:28:30.773Z,18.82
2022-11-19T10:29:37.338Z,18.79
2022-11-19T10:30:41.298Z,18.78
2022-11-19T10:31:50.831Z,18.84
2022-11-19T10:33:14.992Z,18.81
2022-11-19T10:34:23.429Z,18.79
2022-11-19T10:35:40.723Z,18.78
2022-11-19T10:36:50.477Z,18.78
2022-11-19T10:38:05.374Z,18.79
2022-11-19T10:39:18.221Z,18.82
2022-11-19T10:40:23.898Z,18.91
2022-11-19T10:41:42.266Z,18.95
2022-11-19T10:42:58.820Z,19.00
2022-11-19T10:44:32.612Z,19.00
2022-11-19T10:45:34.131Z,19.01
2022-11-19T10:46:35.986Z,19.06
2022-11-19T10:47:44.426Z,19.11
2022-11-19T10:48:57.638Z,19.16
2022-11-19T10:49:59.222Z,19.18
2022-11-19T10:51:03.594Z,19.18
2022-11-19T10:52:10.298Z,19.24
2022-11-19T10:53:27.273Z,19.26
2022-11-19T10:54:30.297Z,19.29
2022-11-19T10:55:41.751Z,19.31
2022-11-19T10:56:43.334Z,19.32
2022-11-19T10:57:46.913Z,19.34
2022-11-19T10:58:56.549Z,19.31
2022-11-19T10:59:58.611Z,19.31
2022-11-19T11:01:04.166Z,19.35
2022-11-19T11:02:24.999Z,19.38
2022-11-19T11:03:29.138Z,19.39
2022-11-19T11:04:30.843Z,19.41
2022-11-19T11:06:05.162Z,19.44
2022-11-19T11:07:06.828Z,19.42
2022-11-19T11:08:11.469Z,19.42
2022-11-19T11:09:28.652Z,19.45
2022-11-19T11:10:37.432Z,19.46
2022-11-19T11:11:57.609Z,19.48
2022-11-19T11:13:25.763Z,19.50
2022-11-19T11:14:45.934Z,19.55
2022-11-19T11:15:50.528Z,19.59
2022-11-19T11:16:52.172Z,19.65
2022-11-19T11:18:24.953Z,19.80
2022-11-19T11:19:26.654Z,19.84
2022-11-19T11:20:30.074Z,19.94
2022-11-19T11:21:36.626Z,19.97
2022-11-19T11:22:38.534Z,20.00
2022-11-19T11:23:50.988Z,20.04
2022-11-19T11:24:52.692Z,20.01
2022-11-19T11:26:10.510Z,19.99
2022-11-19T11:27:25.503Z,19.99
2022-11-19T11:28:27.105Z,19.99
2022-11-19T11:29:28.748Z,19.96
2022-11-19T11:30:30.410Z,19.99
2022-11-19T11:31:43.601Z,19.97
2022-11-19T11:32:45.116Z,19.88
2022-11-19T11:33:57.765Z,20.02
2022-11-19T11:35:02.346Z,20.14
2022-11-19T11:36:12.653Z,20.08
2022-11-19T11:37:14.479Z,20.00
2022-11-19T11:38:20.741Z,19.94
2022-11-19T11:39:32.498Z,19.88
2022-11-19T11:40:34.079Z,19.84
2022-11-19T11:42:05.022Z,19.80
2022-11-19T11:43:00.941Z,19.80
2022-11-19T11:44:06.588Z,19.72
2022-11-19T11:45:32.967Z,19.69
2022-11-19T11:46:49.069Z,19.72
2022-11-19T11:47:50.824Z,19.74
2022-11-19T11:48:52.978Z,19.75
2022-11-19T11:50:08.664Z,19.75
2022-11-19T11:51:28.135Z,19.70
2022-11-19T11:52:43.628Z,19.65
2022-11-19T11:54:02.544Z,19.62
2022-11-19T11:55:06.908Z,19.58
2022-11-19T11:56:09.581Z,19.57
2022-11-19T11:57:18.474Z,19.53
2022-11-19T11:58:30.835Z,19.50
2022-11-19T11:59:33.233Z,19.49
2022-11-19T12:00:39.723Z,19.48
2022-11-19T12:01:42.904Z,19.48
2022-11-19T12:03:09.492Z,19.51
2022-11-19T12:04:13.839Z,19.52
2022-11-19T12:05:18.213Z,19.57
2022-11-19T12:06:24.530Z,19.65
2022-11-19T12:07:35.055Z,19.72
2022-11-19T12:09:13.650Z,19.74
2022-11-19T12:10:25.983Z,19.73
2022-11-19T12:11:50.145Z,19.78
2022-11-19T12:13:19.458Z,19.86
2022-11-19T12:14:35.060Z,19.84
2022-11-19T12:15:39.509Z,19.84
2022-11-19T12:17:06.104Z,19.87
2022-11-19T12:18:13.585Z,19.91
2022-11-19T12:19:33.181Z,19.91
2022-11-19T12:21:18.870Z,19.96
2022-11-19T12:22:41.491Z,19.98
2022-11-19T12:23:51.690Z,19.96
2022-11-19T12:24:55.895Z,19.93
2022-11-19T12:26:12.551Z,19.87
2022-11-19T12:27:20.223Z,19.80
2022-11-19T12:29:03.398Z,19.73
2022-11-19T12:30:07.796Z,19.71
2022-11-19T12:31:41.376Z,19.69
2022-11-19T12:33:16.819Z,19.61
2022-11-19T12:34:18.339Z,19.59
2022-11-19T12:35:36.182Z,19.59
2022-11-19T12:37:06.031Z,19.58
2022-11-19T12:38:32.118Z,19.54
2022-11-19T12:39:42.446Z,19.50
2022-11-19T12:41:02.744Z,19.48
2022-11-19T12:42:24.475Z,19.45
2022-11-19T12:43:47.061Z,19.45
2022-11-19T12:45:14.763Z,19.44
2022-11-19T12:46:20.595Z,19.44
2022-11-19T12:47:47.042Z,19.42
2022-11-19T12:49:10.511Z,19.42
2022-11-19T12:50:36.667Z,19.46
2022-11-19T12:51:59.371Z,19.47
2022-11-19T12:53:19.130Z,19.49
2022-11-19T12:54:55.378Z,19.50
2022-11-19T12:56:11.775Z,19.48
2022-11-19T12:57:52.285Z,19.45
2022-11-19T12:59:29.119Z,19.47
2022-11-19T13:00:35.689Z,19.46
2022-11-19T13:01:45.391Z,19.49
2022-11-19T13:03:08.763Z,19.54
2022-11-19T13:04:21.169Z,19.57
2022-11-19T13:05:25.859Z,19.57
2022-11-19T13:06:43.791Z,19.61
2022-11-19T13:08:02.431Z,19.69
2022-11-19T13:09:48.188Z,19.76
2022-11-19T13:10:59.599Z,19.76
2022-11-19T13:12:08.006Z,19.77
2022-11-19T13:13:14.329Z,19.79
2022-11-19T13:14:35.522Z,19.81
2022-11-19T13:15:41.551Z,19.81
2022-11-19T13:16:44.403Z,19.87
2022-11-19T13:17:50.797Z,19.84
2022-11-19T13:19:00.278Z,19.86
2022-11-19T13:20:18.251Z,19.84
2022-11-19T13:21:38.453Z,19.85
2022-11-19T13:22:46.746Z,19.85
2022-11-19T13:23:49.173Z,19.85
2022-11-19T13:24:59.690Z,19.84
2022-11-19T13:26:23.882Z,19.84
2022-11-19T13:27:28.430Z,19.82
2022-11-19T13:28:39.753Z,19.81
2022-11-19T13:29:45.739Z,19.79
2022-11-19T13:30:50.807Z,19.81
2022-11-19T13:32:03.535Z,19.79
2022-11-19T13:33:19.890Z,19.79
2022-11-19T13:34:24.558Z,19.84
2022-11-19T13:35:37.954Z,19.83
2022-11-19T13:36:49.226Z,19.83
2022-11-19T13:37:58.312Z,19.80
2022-11-19T13:39:26.563Z,19.79
2022-11-19T13:40:48.412Z,19.70
2022-11-19T13:42:11.141Z,19.70
2022-11-19T13:43:39.831Z,19.69
2022-11-19T13:44:41.784Z,19.77
2022-11-19T13:45:47.416Z,19.70
2022-11-19T13:46:59.123Z,19.66
2022-11-19T13:48:20.198Z,19.65
2022-11-19T13:49:31.843Z,19.71
2022-11-19T13:50:42.852Z,19.68
2022-11-19T13:51:48.377Z,19.66
2022-11-19T13:52:58.154Z,19.62
2022-11-19T13:54:03.410Z,19.59
2022-11-19T13:55:26.493Z,19.61
2022-11-19T13:56:56.011Z,19.61
2022-11-19T13:58:11.289Z,19.61
2022-11-19T13:59:27.760Z,19.65
2022-11-19T14:00:29.516Z,19.62
2022-11-19T14:01:37.243Z,19.65
2022-11-19T14:02:44.568Z,19.67
2022-11-19T14:03:55.088Z,19.67
2022-11-19T14:05:08.620Z,19.66
2022-11-19T14:06:37.389Z,19.67
2022-11-19T14:07:57.655Z,19.67
2022-11-19T14:09:17.081Z,19.65
2022-11-19T14:10:39.370Z,19.62
2022-11-19T14:12:17.427Z,19.60
2022-11-19T14:13:21.565Z,19.60
2022-11-19T14:15:17.137Z,19.62
2022-11-19T14:16:49.194Z,19.61
2022-11-19T14:18:25.049Z,19.58
2022-11-19T14:19:44.918Z,19.60
2022-11-19T14:21:05.294Z,19.62
2022-11-19T14:22:50.187Z,19.62
2022-11-19T14:24:10.684Z,19.65
2022-11-19T14:25:50.751Z,19.65
2022-11-19T14:26:52.622Z,19.68
2022-11-19T14:27:54.621Z,19.69
2022-11-19T14:28:56.192Z,19.69
2022-11-19T14:30:06.728Z,19.67